Time;durP1;ratioP1;P1;durP2;ratioP2;P2;SDS_P1;SDS_P2;PMS_P1;PMS_P2;Temp;Humidity;BMP_temperature;BMP_pressure;BME280_temperature;BME280_humidity;BME280_pressure;Samples;Min_cycle;Max_cycle;Signal;HPM_P1;HPM_P2
2023/01/29 00:01:04;;;;;;;27.87;13.43;;;;;;;-145.18;100.00;60484.78;5050971;28;20046;-69
2023/01/29 00:03:30;;;;;;;29.90;15.07;;;;;;;-145.18;100.00;60484.78;5056651;28;20036;-69
2023/01/29 00:05:55;;;;;;;28.90;14.00;;;;;;;-145.18;100.00;60484.78;5056978;28;20058;-69
2023/01/29 00:08:20;;;;;;;33.33;16.00;;;;;;;-145.18;100.00;60484.78;5069696;28;20066;-69
2023/01/29 00:10:46;;;;;;;30.83;15.63;;;;;;;-145.18;100.00;60484.78;5052579;28;20031;-69
2023/01/29 00:13:12;;;;;;;29.17;13.87;;;;;;;-145.18;100.00;60484.78;5051680;28;20377;-69
2023/01/29 00:15:38;;;;;;;32.13;15.17;;;;;;;-145.18;100.00;60484.78;5044282;28;20033;-69
2023/01/29 00:18:03;;;;;;;30.83;15.53;;;;;;;-145.18;100.00;60484.78;5050635;28;20836;-69
2023/01/29 00:20:29;;;;;;;29.47;14.80;;;;;;;-145.18;100.00;60484.78;5050625;28;20024;-69
2023/01/29 00:22:55;;;;;;;28.20;15.30;;;;;;;-145.18;100.00;60484.78;5050582;28;20048;-70
2023/01/29 00:25:20;;;;;;;28.43;13.90;;;;;;;-145.18;100.00;60484.78;5054678;28;20467;-69
2023/01/29 00:27:46;;;;;;;28.77;14.40;;;;;;;-145.18;100.00;60484.78;5054559;28;20100;-69
2023/01/29 00:30:12;;;;;;;33.17;16.33;;;;;;;-145.18;100.00;60484.78;5051988;28;20093;-70
2023/01/29 00:32:41;;;;;;;30.83;14.43;;;;;;;-145.18;100.00;60484.78;5053571;28;20033;-70
2023/01/29 00:35:07;;;;;;;24.70;12.07;;;;;;;-145.18;100.00;60484.78;5053617;28;20025;-70
2023/01/29 00:37:34;;;;;;;30.10;15.10;;;;;;;-145.18;100.00;60484.78;5052498;28;20041;-70
2023/01/29 00:39:59;;;;;;;29.00;14.20;;;;;;;-145.18;100.00;60484.78;5050755;28;20537;-70
2023/01/29 00:45:10;;;;;;;28.40;14.60;;;;;;;-145.18;100.00;60484.78;5048983;28;20083;-70
2023/01/29 00:47:36;;;;;;;28.53;14.13;;;;;;;-145.18;100.00;60484.78;5052768;28;20028;-70
2023/01/29 00:50:07;;;;;;;28.77;14.37;;;;;;;-145.18;100.00;60484.78;5048418;28;20469;-69
2023/01/29 00:52:34;;;;;;;30.00;15.68;;;;;;;-145.18;100.00;60484.78;5052390;28;20029;-70
2023/01/29 00:54:59;;;;;;;30.73;15.40;;;;;;;-145.18;100.00;60484.78;5051575;28;20044;-70
2023/01/29 00:57:27;;;;;;;30.97;15.50;;;;;;;-145.18;100.00;60484.78;5055136;28;20388;-70
2023/01/29 00:59:53;;;;;;;29.10;14.60;;;;;;;-145.18;100.00;60484.78;5056450;28;20480;-70
2023/01/29 01:05:06;;;;;;;31.30;14.37;;;;;;;-145.18;100.00;60484.78;5062180;28;20032;-70
2023/01/29 01:07:32;;;;;;;28.17;14.50;;;;;;;-145.18;100.00;60484.78;5055218;28;20024;-70
2023/01/29 01:12:42;;;;;;;25.90;12.00;;;;;;;-145.18;100.00;60484.78;5064143;28;20079;-70
2023/01/29 01:15:08;;;;;;;30.47;14.83;;;;;;;-145.18;100.00;60484.78;5051381;28;20028;-70
2023/01/29 01:17:33;;;;;;;24.30;11.73;;;;;;;-145.18;100.00;60484.78;5053395;28;20465;-69
2023/01/29 01:19:59;;;;;;;23.83;11.27;;;;;;;-145.18;100.00;60484.78;5048159;28;20100;-69
2023/01/29 01:22:24;;;;;;;27.80;13.70;;;;;;;-145.18;100.00;60484.78;5050714;28;20024;-70
2023/01/29 01:24:50;;;;;;;34.33;15.20;;;;;;;-145.18;100.00;60484.78;5054895;28;20059;-70
2023/01/29 01:27:16;;;;;;;27.33;13.13;;;;;;;-145.18;100.00;60484.78;5052313;28;20025;-70
2023/01/29 01:29:41;;;;;;;29.03;14.27;;;;;;;-145.18;100.00;60484.78;5056618;28;20377;-69
2023/01/29 01:32:07;;;;;;;28.47;14.03;;;;;;;-145.18;100.00;60484.78;5043787;28;20029;-70
2023/01/29 01:34:32;;;;;;;29.67;13.97;;;;;;;-145.18;100.00;60484.78;5047936;28;20029;-69
2023/01/29 01:36:57;;;;;;;29.17;14.27;;;;;;;-145.18;100.00;60484.78;5048507;28;20021;-70
2023/01/29 01:39:24;;;;;;;28.60;14.43;;;;;;;-145.18;100.00;60484.78;5056807;28;20021;-70
2023/01/29 01:41:52;;;;;;;31.30;14.23;;;;;;;-145.18;100.00;60484.78;5053716;28;20032;-70
2023/01/29 01:44:53;;;;;;;25.40;12.77;;;;;;;-145.18;100.00;60484.78;5054870;28;20032;-70
2023/01/29 01:47:30;;;;;;;26.53;12.90;;;;;;;-145.18;100.00;60484.78;5054027;28;20035;-70
2023/01/29 01:50:01;;;;;;;27.67;14.37;;;;;;;-145.18;100.00;60484.78;5056994;28;20089;-70
2023/01/29 01:52:29;;;;;;;33.40;14.60;;;;;;;-145.18;100.00;60484.78;5051948;28;20022;-70
2023/01/29 01:54:56;;;;;;;27.67;14.17;;;;;;;-145.18;0.00;60484.78;5035664;28;20036;-70
2023/01/29 01:57:24;;;;;;;30.67;15.30;;;;;;;-145.18;100.00;60484.78;5050753;28;20083;-70
2023/01/29 01:59:56;;;;;;;30.83;14.73;;;;;;;-145.18;100.00;60484.78;5051480;28;20032;-70
2023/01/29 02:10:42;;;;;;;30.90;14.90;;;;;;;-145.18;0.00;60484.78;5043454;28;20043;-72
2023/01/29 02:13:08;;;;;;;30.63;14.17;;;;;;;-145.18;100.00;60484.78;5036866;28;20029;-72
2023/01/29 02:15:33;;;;;;;29.90;14.57;;;;;;;-145.18;100.00;60484.78;5043037;28;20107;-72
2023/01/29 02:17:59;;;;;;;29.30;14.50;;;;;;;-145.18;100.00;60484.78;5033866;28;20025;-72
2023/01/29 02:20:30;;;;;;;30.37;15.17;;;;;;;-145.18;100.00;60484.78;5038215;28;20036;-72
2023/01/29 02:23:22;;;;;;;28.00;13.95;;;;;;;-145.18;100.00;60484.78;5045496;28;20078;-72
2023/01/29 02:26:09;;;;;;;31.65;15.65;;;;;;;-145.18;100.00;60484.78;5035762;28;20037;-72
2023/01/29 02:28:37;;;;;;;31.07;15.30;;;;;;;-145.18;nan;60484.78;5038337;28;20513;-72
2023/01/29 02:31:05;;;;;;;31.77;16.17;;;;;;;-145.18;100.00;60484.78;5042065;28;20095;-73
2023/01/29 02:33:52;;;;;;;34.83;17.10;;;;;;;-145.18;100.00;60484.78;5035268;28;20025;-72
2023/01/29 02:36:48;;;;;;;33.37;16.23;;;;;;;-145.18;100.00;60484.78;5046116;28;20071;-72
2023/01/29 02:39:31;;;;;;;28.10;14.10;;;;;;;-145.18;100.00;60484.78;5043049;28;20375;-73
2023/01/29 02:42:15;;;;;;;31.63;15.13;;;;;;;-145.18;100.00;60484.78;5039675;28;20029;-73
2023/01/29 02:44:42;;;;;;;29.03;15.00;;;;;;;-145.18;nan;60484.78;5041707;28;20025;-73
2023/01/29 02:47:32;;;;;;;32.97;16.57;;;;;;;-145.18;0.00;60484.78;5048142;28;20052;-73
2023/01/29 02:50:09;;;;;;;34.73;16.13;;;;;;;-145.18;0.00;60484.78;5041259;28;20033;-72
2023/01/29 02:52:55;;;;;;;36.70;16.27;;;;;;;-145.18;0.00;60484.78;5042043;28;20067;-72
2023/01/29 02:55:37;;;;;;;32.57;15.27;;;;;;;-145.18;100.00;60484.78;5037656;28;20487;-72
2023/01/29 02:58:14;;;;;;;30.60;14.03;;;;;;;-145.18;0.00;60484.78;5043309;28;20029;-72
2023/01/29 03:00:44;;;;;;;29.17;14.50;;;;;;;-145.18;100.00;60484.78;5036044;28;20083;-72
2023/01/29 03:03:23;;;;;;;33.67;16.60;;;;;;;-145.18;100.00;60484.78;5025043;28;20034;-72
2023/01/29 03:06:01;;;;;;;32.10;15.93;;;;;;;-145.18;100.00;60484.78;5025598;28;20036;-73
2023/01/29 03:08:41;;;;;;;32.27;14.60;;;;;;;-145.18;0.00;60484.78;5016130;28;20025;-73
2023/01/29 03:11:12;;;;;;;35.07;15.13;;;;;;;-145.18;0.00;60484.78;5025363;28;20033;-73
2023/01/29 03:13:50;;;;;;;34.33;16.50;;;;;;;-145.18;100.00;60484.78;5027708;28;20055;-73
2023/01/29 03:16:33;;;;;;;33.43;16.23;;;;;;;-145.18;nan;60484.78;5021277;28;20037;-73
2023/01/29 03:19:09;;;;;;;32.00;15.93;;;;;;;-145.18;100.00;60484.78;5020947;28;20151;-72
2023/01/29 03:21:57;;;;;;;35.00;16.13;;;;;;;-145.18;100.00;60484.78;5028350;28;20048;-72
2023/01/29 03:32:54;;;;;;;36.20;16.97;;;;;;;-145.18;100.00;60484.78;5019486;28;20408;-72
2023/01/29 03:35:32;;;;;;;33.43;16.33;;;;;;;-145.18;100.00;60484.78;5022953;28;20118;-72
2023/01/29 03:37:59;;;;;;;32.00;15.37;;;;;;;-145.18;100.00;60484.78;5019129;28;20026;-72
2023/01/29 03:40:27;;;;;;;32.97;16.47;;;;;;;-145.18;100.00;60484.78;5020202;28;20038;-72
2023/01/29 03:43:09;;;;;;;34.27;16.70;;;;;;;-145.18;100.00;60484.78;5018233;28;20125;-73
2023/01/29 03:45:55;;;;;;;34.73;15.13;;;;;;;-145.18;100.00;60484.78;5021693;28;20067;-73
2023/01/29 03:48:28;;;;;;;30.33;15.60;;;;;;;-145.18;100.00;60484.78;5018393;28;20095;-71
2023/01/29 03:51:03;;;;;;;36.40;16.07;;;;;;;-145.18;100.00;60484.78;4996060;28;20034;-71
2023/01/29 03:53:40;;;;;;;34.37;15.97;;;;;;;-145.18;100.00;60484.78;5021318;28;20033;-70
2023/01/29 03:56:09;;;;;;;28.73;13.47;;;;;;;-145.18;100.00;60484.78;5023880;28;20073;-69
2023/01/29 03:58:48;;;;;;;35.13;15.97;;;;;;;-145.18;100.00;60484.78;5016384;28;20097;-71
2023/01/29 04:01:21;;;;;;;35.57;16.13;;;;;;;-145.18;100.00;60484.78;5027681;28;20481;-67
2023/01/29 04:03:52;;;;;;;37.03;17.23;;;;;;;-145.18;100.00;60484.78;5026245;28;20432;-70
2023/01/29 04:06:22;;;;;;;39.03;18.15;;;;;;;-145.18;100.00;60484.78;5021930;28;20069;-70
2023/01/29 04:09:01;;;;;;;34.53;16.03;;;;;;;-145.18;100.00;60484.78;5027595;28;20070;-70
2023/01/29 04:11:28;;;;;;;34.77;15.80;;;;;;;-145.18;100.00;60484.78;5016287;28;20032;-71
2023/01/29 04:13:56;;;;;;;36.53;15.80;;;;;;;-145.18;100.00;60484.78;5024347;28;20818;-71
2023/01/29 04:16:27;;;;;;;32.57;15.67;;;;;;;-145.18;100.00;60484.78;5031083;28;20025;-71
2023/01/29 04:18:53;;;;;;;32.10;15.23;;;;;;;-145.18;0.00;60484.78;5026692;28;20036;-71
2023/01/29 04:21:19;;;;;;;37.33;17.33;;;;;;;-145.18;0.00;60484.78;5017776;28;20469;-71
2023/01/29 04:23:44;;;;;;;33.03;14.83;;;;;;;-145.18;100.00;60484.78;5021417;28;20084;-71
2023/01/29 04:26:41;;;;;;;36.83;17.17;;;;;;;-145.18;100.00;60484.78;5023839;28;20025;-70
2023/01/29 04:29:28;;;;;;;35.17;17.00;;;;;;;-145.18;0.00;60484.78;5019937;28;20104;-71
2023/01/29 04:32:09;;;;;;;34.77;16.13;;;;;;;-145.18;100.00;60484.78;5030076;28;20029;-70
2023/01/29 04:34:35;;;;;;;32.85;15.57;;;;;;;-145.18;100.00;60484.78;5029800;28;20376;-70
2023/01/29 04:37:11;;;;;;;35.57;16.77;;;;;;;-145.18;100.00;60484.78;5024559;28;20037;-71
2023/01/29 04:39:39;;;;;;;37.53;16.80;;;;;;;-145.18;100.00;60484.78;5017892;28;20087;-71
2023/01/29 04:42:47;;;;;;;36.20;16.37;;;;;;;-145.18;0.00;60484.78;5022027;28;20033;-71
2023/01/29 04:45:26;;;;;;;37.27;16.03;;;;;;;-145.18;100.00;60484.78;5031436;28;20057;-70
2023/01/29 04:48:18;;;;;;;34.40;16.40;;;;;;;-145.18;0.00;60484.78;5026260;28;20424;-71
2023/01/29 04:50:51;;;;;;;33.17;15.80;;;;;;;-145.18;100.00;60484.78;5020124;28;20495;-72
2023/01/29 04:53:28;;;;;;;30.10;13.73;;;;;;;-145.18;0.00;60484.78;5027617;28;20044;-70
2023/01/29 04:56:02;;;;;;;31.97;13.87;;;;;;;-145.18;100.00;60484.78;5024018;28;20075;-71
2023/01/29 04:58:39;;;;;;;37.63;17.50;;;;;;;-145.18;100.00;60484.78;5029441;28;20025;-70
2023/01/29 05:01:10;;;;;;;38.57;17.07;;;;;;;-145.18;100.00;60484.78;5020488;28;20080;-70
2023/01/29 05:03:39;;;;;;;36.00;16.30;;;;;;;-145.18;100.00;60484.78;5021780;28;20024;-70
2023/01/29 05:06:06;;;;;;;39.33;18.53;;;;;;;-145.18;100.00;60484.78;5025828;28;20056;-71
2023/01/29 05:08:33;;;;;;;39.30;18.30;;;;;;;-145.18;0.00;60484.78;5018356;28;20025;-70
2023/01/29 05:10:59;;;;;;;34.07;15.57;;;;;;;-145.18;100.00;60484.78;5020934;28;20036;-71
2023/01/29 05:13:28;;;;;;;38.27;18.30;;;;;;;-145.18;100.00;60484.78;5022246;28;20044;-70
2023/01/29 05:16:04;;;;;;;35.87;16.80;;;;;;;-145.18;100.00;60484.78;5018329;28;20036;-72
2023/01/29 05:18:30;;;;;;;36.87;17.50;;;;;;;-145.18;100.00;60484.78;5017015;28;20022;-71
2023/01/29 05:21:01;;;;;;;35.33;16.73;;;;;;;-145.18;100.00;60484.78;5018740;28;20033;-70
2023/01/29 05:23:27;;;;;;;38.72;18.83;;;;;;;-145.18;100.00;60484.78;5031407;28;20029;-70
2023/01/29 05:25:52;;;;;;;39.90;19.00;;;;;;;-145.18;100.00;60484.78;5017448;28;20440;-72
2023/01/29 05:28:18;;;;;;;39.93;18.70;;;;;;;-145.18;100.00;60484.78;5015725;28;20025;-70
2023/01/29 05:30:48;;;;;;;39.90;20.17;;;;;;;-145.18;34.16;60484.78;5026248;28;20477;-72
2023/01/29 05:33:17;;;;;;;40.33;18.77;;;;;;;-145.18;100.00;60484.78;5025963;28;20076;-70
2023/01/29 05:35:43;;;;;;;33.63;14.40;;;;;;;-145.18;100.00;60484.78;5025935;28;20028;-71
2023/01/29 05:38:09;;;;;;;40.20;17.33;;;;;;;-145.18;100.00;60484.78;5025821;28;20489;-70
2023/01/29 05:40:35;;;;;;;39.93;19.83;;;;;;;-145.18;100.00;60484.78;5021822;28;20030;-71
2023/01/29 05:43:00;;;;;;;41.73;19.80;;;;;;;-145.18;100.00;60484.78;5016101;28;20099;-71
2023/01/29 05:45:26;;;;;;;39.30;18.73;;;;;;;-145.18;100.00;60484.78;5029057;28;20519;-70
2023/01/29 05:47:58;;;;;;;41.87;19.87;;;;;;;-145.18;100.00;60484.78;5026763;28;20037;-71
2023/01/29 05:50:24;;;;;;;42.27;18.10;;;;;;;-145.18;100.00;60484.78;5021176;28;20022;-70
2023/01/29 05:52:56;;;;;;;39.67;18.43;;;;;;;-145.18;100.00;60484.78;5025041;28;20465;-70
2023/01/29 05:55:21;;;;;;;42.03;19.98;;;;;;;-145.18;100.00;60484.78;5026413;28;20063;-70
2023/01/29 05:57:46;;;;;;;46.03;21.73;;;;;;;-145.18;nan;60484.78;5032822;28;20115;-70
2023/01/29 06:00:12;;;;;;;45.13;20.70;;;;;;;-145.18;0.00;60484.78;5018977;28;20022;-71
2023/01/29 06:02:38;;;;;;;42.57;19.57;;;;;;;-145.18;100.00;60484.78;5031195;28;20032;-71
2023/01/29 06:05:04;;;;;;;44.80;20.63;;;;;;;-145.18;0.00;60484.78;5019808;28;20428;-71
2023/01/29 06:07:29;;;;;;;44.93;20.77;;;;;;;-145.18;0.00;60484.78;5019045;28;20072;-71
2023/01/29 06:09:55;;;;;;;35.90;15.93;;;;;;;-145.18;100.00;60484.78;5020676;28;20030;-71
2023/01/29 06:12:20;;;;;;;44.50;20.77;;;;;;;-145.18;0.00;60484.78;5020252;28;20057;-71
2023/01/29 06:14:46;;;;;;;46.13;21.03;;;;;;;-145.18;0.00;60484.78;5030418;28;20025;-70
2023/01/29 06:17:11;;;;;;;47.57;21.00;;;;;;;-145.18;0.00;60484.78;5018628;28;20030;-71
2023/01/29 06:19:36;;;;;;;49.23;22.10;;;;;;;-145.18;0.00;60484.78;5021602;28;20021;-71
2023/01/29 06:22:02;;;;;;;49.80;22.27;;;;;;;-145.18;100.00;60484.78;5031920;28;20472;-69
2023/01/29 06:24:27;;;;;;;47.77;20.23;;;;;;;-145.18;34.16;60484.78;5014888;28;20113;-69
2023/01/29 06:26:52;;;;;;;51.67;21.20;;;;;;;-145.18;0.00;60484.78;5022478;28;20116;-71
2023/01/29 06:29:18;;;;;;;36.97;16.23;;;;;;;-145.18;0.00;60484.78;5010104;28;20025;-71
2023/01/29 06:31:43;;;;;;;45.73;20.30;;;;;;;-145.18;100.00;60484.78;5024204;28;20021;-68
2023/01/29 06:34:09;;;;;;;45.30;20.13;;;;;;;-145.18;100.00;60484.78;5027158;28;20033;-69
2023/01/29 06:36:34;;;;;;;47.70;20.57;;;;;;;-145.18;0.00;60484.78;5019715;28;20025;-69
2023/01/29 06:38:59;;;;;;;46.50;21.60;;;;;;;-145.18;100.00;60484.78;5020182;28;20033;-71
2023/01/29 06:41:25;;;;;;;48.47;19.87;;;;;;;-145.18;100.00;60484.78;5018821;28;20029;-70
2023/01/29 06:43:50;;;;;;;45.67;19.80;;;;;;;-145.18;100.00;60484.78;5016462;28;20029;-69
2023/01/29 06:46:16;;;;;;;46.80;20.40;;;;;;;-145.18;100.00;60484.78;5020396;28;20115;-69
2023/01/29 06:48:42;;;;;;;49.17;20.97;;;;;;;-145.18;100.00;60484.78;5020589;28;20083;-68
2023/01/29 06:51:09;;;;;;;42.33;20.43;;;;;;;-145.18;100.00;60484.78;5019295;28;20040;-68
2023/01/29 06:53:36;;;;;;;40.53;17.93;;;;;;;-145.18;100.00;60484.78;5020860;28;20026;-71
2023/01/29 06:56:03;;;;;;;43.63;19.50;;;;;;;-145.18;100.00;60484.78;5025214;28;20033;-69
2023/01/29 06:58:28;;;;;;;41.00;20.23;;;;;;;-145.18;100.00;60484.78;5017672;28;20110;-69
2023/01/29 07:01:01;;;;;;;41.53;19.40;;;;;;;-145.18;0.00;60484.78;5025034;28;20079;-69
2023/01/29 07:03:26;;;;;;;39.37;16.97;;;;;;;-145.18;100.00;60484.78;5024888;28;20120;-69
2023/01/29 07:05:52;;;;;;;40.57;17.87;;;;;;;-145.18;100.00;60484.78;5022269;28;20128;-68
2023/01/29 07:08:18;;;;;;;40.27;17.60;;;;;;;-145.18;100.00;60484.78;5019973;28;20032;-68
2023/01/29 07:10:43;;;;;;;38.13;16.90;;;;;;;-145.18;100.00;60484.78;5017842;28;20132;-68
2023/01/29 07:13:09;;;;;;;41.63;18.77;;;;;;;-145.18;100.00;60484.78;5016977;28;20361;-68
2023/01/29 07:15:34;;;;;;;35.93;16.87;;;;;;;-145.18;100.00;60484.78;5016159;28;20029;-68
2023/01/29 07:18:03;;;;;;;28.47;13.17;;;;;;;-145.18;100.00;60484.78;5022091;28;20028;-69
2023/01/29 07:20:30;;;;;;;36.90;16.93;;;;;;;-145.18;100.00;60484.78;5016742;28;20399;-68
2023/01/29 07:22:56;;;;;;;31.50;13.67;;;;;;;-145.18;100.00;60484.78;5021416;28;20168;-68
2023/01/29 07:25:21;;;;;;;39.37;17.67;;;;;;;-145.18;100.00;60484.78;5015959;28;20657;-69
2023/01/29 07:27:48;;;;;;;37.93;17.67;;;;;;;-145.18;100.00;60484.78;5020107;28;20029;-69
2023/01/29 07:30:14;;;;;;;36.70;17.17;;;;;;;-145.18;0.00;60484.78;5016046;28;20029;-68
2023/01/29 07:32:39;;;;;;;27.13;12.57;;;;;;;-145.18;100.00;60484.78;5026746;28;20024;-68
2023/01/29 07:35:05;;;;;;;35.67;16.33;;;;;;;-145.18;nan;60484.78;5016476;28;20022;-68
2023/01/29 07:37:30;;;;;;;36.30;17.43;;;;;;;-145.18;100.00;60484.78;5023929;28;20476;-69
2023/01/29 07:39:56;;;;;;;38.00;16.93;;;;;;;-145.18;nan;60484.78;5022003;28;20065;-68
2023/01/29 07:42:22;;;;;;;37.83;17.57;;;;;;;-145.18;100.00;60484.78;5019558;28;20033;-68
2023/01/29 07:44:47;;;;;;;31.17;14.70;;;;;;;-145.18;nan;60484.78;5024078;28;20041;-69
2023/01/29 07:47:13;;;;;;;36.93;15.77;;;;;;;-145.18;100.00;60484.78;5016800;28;20045;-70
2023/01/29 07:49:38;;;;;;;27.37;11.17;;;;;;;-145.18;0.00;60484.78;5024185;28;20477;-69
2023/01/29 07:52:03;;;;;;;36.87;16.93;;;;;;;-145.18;100.00;60484.78;5019718;28;20057;-68
2023/01/29 07:54:29;;;;;;;38.67;18.00;;;;;;;-145.18;nan;60484.78;5028793;28;20028;-69
2023/01/29 07:56:55;;;;;;;33.53;15.27;;;;;;;-145.18;100.00;60484.78;5015612;28;20064;-68
2023/01/29 07:59:20;;;;;;;35.47;16.77;;;;;;;-145.18;100.00;60484.78;5018226;28;20041;-68
2023/01/29 08:01:45;;;;;;;35.40;17.03;;;;;;;-145.18;nan;60484.78;5021870;28;20083;-68
2023/01/29 08:04:11;;;;;;;30.33;14.17;;;;;;;-145.18;0.00;60484.78;5010445;28;20544;-68
2023/01/29 08:06:36;;;;;;;31.43;14.80;;;;;;;-145.18;100.00;60484.78;5004114;28;20082;-68
2023/01/29 08:09:02;;;;;;;28.83;13.27;;;;;;;-145.18;100.00;60484.78;5016810;28;20041;-69
2023/01/29 08:11:28;;;;;;;37.03;18.13;;;;;;;-145.18;100.00;60484.78;5024483;28;20104;-69
2023/01/29 08:13:54;;;;;;;36.77;15.83;;;;;;;-145.18;100.00;60484.78;5027635;28;20437;-68
2023/01/29 08:16:19;;;;;;;36.30;17.17;;;;;;;-145.18;100.00;60484.78;5030192;28;20026;-69
2023/01/29 08:18:47;;;;;;;32.30;15.37;;;;;;;-145.18;nan;60484.78;5000889;28;20014;-68
2023/01/29 08:21:13;;;;;;;36.70;17.53;;;;;;;-145.18;100.00;60484.78;5018832;28;20033;-68
2023/01/29 08:23:38;;;;;;;32.83;14.20;;;;;;;-145.18;100.00;60484.78;5016965;28;20021;-68
2023/01/29 08:26:04;;;;;;;37.20;16.93;;;;;;;-145.18;100.00;60484.78;5032151;28;20058;-68
2023/01/29 08:28:29;;;;;;;31.70;15.00;;;;;;;-145.18;nan;60484.78;5031407;28;20030;-68
2023/01/29 08:30:55;;;;;;;33.43;15.83;;;;;;;-145.18;100.00;60484.78;5019019;28;20029;-69
2023/01/29 08:33:21;;;;;;;34.97;16.50;;;;;;;-145.18;100.00;60484.78;5038877;28;20056;-68
2023/01/29 08:35:50;;;;;;;32.93;15.33;;;;;;;-145.18;100.00;60484.78;5035986;28;20535;-69
2023/01/29 08:38:16;;;;;;;35.80;16.43;;;;;;;-145.18;100.00;60484.78;5034407;28;20032;-68
2023/01/29 08:40:41;;;;;;;25.73;12.37;;;;;;;-145.18;nan;60484.78;5045665;28;20033;-68
2023/01/29 08:43:09;;;;;;;35.13;17.80;;;;;;;-145.18;100.00;60484.78;5019540;28;20022;-69
2023/01/29 08:45:37;;;;;;;36.13;17.57;;;;;;;-145.18;nan;60484.78;5024076;28;20067;-69
2023/01/29 08:48:03;;;;;;;34.03;15.90;;;;;;;-145.18;0.00;60484.78;5021968;28;20018;-69
2023/01/29 08:50:30;;;;;;;32.73;15.73;;;;;;;-145.18;100.00;60484.78;5020664;28;20465;-68
2023/01/29 08:52:57;;;;;;;27.07;12.87;;;;;;;-145.18;100.00;60484.78;5027356;28;20064;-69
2023/01/29 08:55:23;;;;;;;29.73;15.27;;;;;;;-145.18;100.00;60484.78;5032464;28;20029;-71
2023/01/29 08:57:48;;;;;;;33.37;16.40;;;;;;;-145.18;nan;60484.78;5027518;28;20013;-72
2023/01/29 09:00:14;;;;;;;34.70;17.03;;;;;;;-145.18;100.00;60484.78;5028977;28;20082;-71
2023/01/29 09:02:39;;;;;;;32.60;16.03;;;;;;;-145.18;nan;60484.78;5033920;28;20029;-71
2023/01/29 09:05:06;;;;;;;33.93;17.40;;;;;;;-145.18;100.00;60484.78;5043048;28;20472;-71
2023/01/29 09:07:32;;;;;;;36.50;17.47;;;;;;;-145.18;100.00;60484.78;5045657;28;20127;-72
2023/01/29 09:09:57;;;;;;;31.17;15.60;;;;;;;-145.18;0.00;60484.78;5050572;28;20059;-71
2023/01/29 09:12:22;;;;;;;27.17;13.77;;;;;;;-145.18;0.00;60484.78;5036210;28;20025;-72
2023/01/29 09:14:48;;;;;;;32.23;15.70;;;;;;;-145.18;100.00;60484.78;5018784;28;20559;-71
2023/01/29 09:17:13;;;;;;;29.03;13.20;;;;;;;-145.18;nan;60484.78;5021187;28;20693;-71
2023/01/29 09:19:39;;;;;;;31.60;16.10;;;;;;;-145.18;100.00;60484.78;5024329;28;20034;-68
2023/01/29 09:22:04;;;;;;;33.97;15.97;;;;;;;-145.18;100.00;60484.78;5028650;28;20120;-69
2023/01/29 09:24:29;;;;;;;27.00;11.63;;;;;;;-145.18;100.00;60484.78;5010849;28;20049;-69
2023/01/29 09:26:55;;;;;;;36.70;17.37;;;;;;;-145.18;100.00;60484.78;5028602;28;20022;-69
2023/01/29 09:29:20;;;;;;;32.90;17.07;;;;;;;-145.18;100.00;60484.78;5034862;28;20069;-69
2023/01/29 09:31:45;;;;;;;30.83;14.50;;;;;;;-145.18;100.00;60484.78;5031720;28;20104;-68
2023/01/29 09:34:11;;;;;;;31.93;16.13;;;;;;;-145.18;nan;60484.78;5030553;28;20034;-69
2023/01/29 09:36:36;;;;;;;27.37;13.03;;;;;;;-145.18;0.00;60484.78;5028737;28;20203;-69
2023/01/29 09:39:02;;;;;;;33.37;16.33;;;;;;;-145.18;100.00;60484.78;5023443;28;20037;-69
2023/01/29 09:41:36;;;;;;;31.83;15.77;;;;;;;-145.18;100.00;60484.78;5021650;28;20025;-70
2023/01/29 09:44:09;;;;;;;34.23;18.07;;;;;;;-145.18;100.00;60484.78;5034660;28;20392;-68
2023/01/29 09:46:45;;;;;;;33.03;15.97;;;;;;;-145.18;100.00;60484.78;5024318;28;20042;-69
2023/01/29 09:49:18;;;;;;;36.10;18.27;;;;;;;-145.18;100.00;60484.78;5031832;28;20408;-68
2023/01/29 09:51:52;;;;;;;29.37;15.50;;;;;;;-145.18;nan;60484.78;5015557;28;20061;-69
2023/01/29 09:54:17;;;;;;;36.60;18.53;;;;;;;-145.18;100.00;60484.78;5016676;28;20068;-69
2023/01/29 09:56:44;;;;;;;32.70;17.33;;;;;;;-145.18;nan;60484.78;5019004;28;20030;-69
2023/01/29 09:59:12;;;;;;;31.57;15.00;;;;;;;-145.18;100.00;60484.78;5021720;28;20033;-69
2023/01/29 10:01:46;;;;;;;28.40;13.90;;;;;;;-145.18;100.00;60484.78;5024594;28;20029;-70
2023/01/29 10:04:51;;;;;;;26.33;13.10;;;;;;;-145.18;100.00;60484.78;5022454;28;20036;-69
2023/01/29 10:07:47;;;;;;;29.67;15.17;;;;;;;-145.18;100.00;60484.78;5032641;28;20037;-69
2023/01/29 10:10:15;;;;;;;28.10;13.93;;;;;;;-145.18;100.00;60484.78;5016876;28;20489;-68
2023/01/29 10:12:59;;;;;;;32.10;16.57;;;;;;;;;;5031011;28;20024;-69
2023/01/29 10:15:44;;;;;;;24.20;11.13;;;;;;;-145.18;100.00;60484.78;5024773;28;20370;-69
2023/01/29 10:18:34;;;;;;;30.57;17.13;;;;;;;-145.18;nan;60484.78;5032093;28;20029;-69
2023/01/29 10:21:14;;;;;;;30.90;14.83;;;;;;;-145.18;100.00;114074.00;5023039;28;20385;-69
2023/01/29 10:23:49;;;;;;;33.17;15.17;;;;;;;-145.18;100.00;60484.78;5022325;28;20045;-71
2023/01/29 10:26:14;;;;;;;24.87;12.97;;;;;;;-145.18;nan;60484.78;5030031;28;20032;-71
2023/01/29 10:28:46;;;;;;;37.00;18.23;;;;;;;-145.18;0.00;60484.78;5031770;28;20028;-72
2023/01/29 10:31:33;;;;;;;;;;;;;;;-145.18;100.00;60484.78;5022599;28;20033;-71
2023/01/29 10:34:11;;;;;;;32.10;16.20;;;;;;;-145.18;100.00;60484.78;5021050;28;20328;-72
2023/01/29 10:36:47;;;;;;;33.80;16.70;;;;;;;-145.18;100.00;60484.78;5020539;28;20079;-72
2023/01/29 10:39:21;;;;;;;34.67;18.50;;;;;;;-145.18;100.00;60484.78;5017209;28;20532;-71
2023/01/29 10:42:05;;;;;;;25.43;14.00;;;;;;;-145.18;100.00;60484.78;5033603;28;20043;-72
2023/01/29 10:44:33;;;;;;;25.13;12.60;;;;;;;-145.18;nan;60484.78;5018613;28;20040;-71
2023/01/29 10:47:17;;;;;;;26.03;13.10;;;;;;;-145.18;100.00;60484.78;5025846;28;20033;-72
2023/01/29 10:49:57;;;;;;;34.43;17.57;;;;;;;-145.18;100.00;60484.78;5034030;28;20029;-71
2023/01/29 10:52:58;;;;;;;36.40;17.97;;;;;;;-145.18;100.00;60484.78;5025268;28;20033;-71
2023/01/29 10:55:53;;;;;;;42.73;20.77;;;;;;;-145.18;100.00;60484.78;5017847;28;20033;-71
2023/01/29 10:58:24;;;;;;;30.17;15.10;;;;;;;-145.18;100.00;60484.78;4979318;28;20080;-72
2023/01/29 11:00:50;;;;;;;;;;;;;;;-145.18;100.00;60484.78;5033363;28;20075;-72
2023/01/29 11:03:22;;;;;;;63.03;22.67;;;;;;;-145.18;100.00;60484.78;5033730;28;19952;-72
2023/01/29 11:06:10;;;;;;;42.53;19.90;;;;;;;-145.18;100.00;60484.78;5021273;28;20045;-69
2023/01/29 11:08:45;;;;;;;39.17;19.43;;;;;;;-145.18;100.00;60484.78;5016505;28;20122;-71
2023/01/29 11:11:16;;;;;;;54.93;26.37;;;;;;;-145.18;100.00;60484.78;5016885;28;20060;-71
2023/01/29 11:13:51;;;;;;;36.20;17.70;;;;;;;-145.18;100.00;60484.78;5037324;28;20396;-72
2023/01/29 11:16:17;;;;;;;33.90;15.03;;;;;;;-145.18;100.00;60484.78;5019538;28;20037;-71
2023/01/29 11:18:48;;;;;;;31.20;16.13;;;;;;;-145.18;100.00;60484.78;5027919;28;20021;-68
2023/01/29 11:21:14;;;;;;;37.03;17.75;;;;;;;-145.18;100.00;60484.78;5031208;28;20110;-69
2023/01/29 11:23:39;;;;;;;49.27;20.60;;;;;;;-145.18;100.00;60484.78;5024831;28;20037;-69
2023/01/29 11:26:05;;;;;;;24.93;12.57;;;;;;;-145.18;100.00;60484.78;5026539;28;20086;-69
2023/01/29 11:28:41;;;;;;;32.30;16.13;;;;;;;-145.18;100.00;60484.78;5027134;28;20289;-69
2023/01/29 11:31:28;;;;;;;33.87;17.20;;;;;;;-145.18;100.00;60484.78;5022737;28;20493;-70
2023/01/29 11:34:02;;;;;;;24.37;12.93;;;;;;;;;;5016643;28;20673;-69
2023/01/29 11:36:37;;;;;;;32.83;16.57;;;;;;;;;;5022941;28;20033;-69
2023/01/29 11:39:21;;;;;;;34.60;18.47;;;;;;;;;;5020679;28;20048;-69